sensor_id;sensor_type;location;lat;lon;timestamp;P1;durP1;ratioP1;P2;durP2;ratioP2
80307;SDS011;69616;43.522;1.348;2023-06-10T00:02:20;6.03;;;1.17;;
80307;SDS011;69616;43.522;1.348;2023-06-10T00:04:45;6.50;;;1.43;;
80307;SDS011;69616;43.522;1.348;2023-06-10T00:07:11;9.10;;;1.67;;
80307;SDS011;69616;43.522;1.348;2023-06-10T00:09:37;5.47;;;1.10;;
80307;SDS011;69616;43.522;1.348;2023-06-10T00:12:06;6.50;;;1.10;;
80307;SDS011;69616;43.522;1.348;2023-06-10T00:14:35;8.02;;;1.13;;
80307;SDS011;69616;43.522;1.348;2023-06-10T00:17:02;6.97;;;1.20;;
80307;SDS011;69616;43.522;1.348;2023-06-10T00:19:28;7.87;;;1.60;;
80307;SDS011;69616;43.522;1.348;2023-06-10T00:21:55;6.85;;;1.70;;
80307;SDS011;69616;43.522;1.348;2023-06-10T00:24:21;5.68;;;1.52;;
80307;SDS011;69616;43.522;1.348;2023-06-10T00:26:47;7.03;;;1.30;;
80307;SDS011;69616;43.522;1.348;2023-06-10T00:29:12;7.40;;;1.60;;
80307;SDS011;69616;43.522;1.348;2023-06-10T00:31:39;5.07;;;1.00;;
80307;SDS011;69616;43.522;1.348;2023-06-10T00:34:05;6.43;;;1.05;;
80307;SDS011;69616;43.522;1.348;2023-06-10T00:36:30;7.10;;;1.30;;
80307;SDS011;69616;43.522;1.348;2023-06-10T00:38:56;7.50;;;2.08;;
80307;SDS011;69616;43.522;1.348;2023-06-10T00:41:22;6.38;;;1.17;;
80307;SDS011;69616;43.522;1.348;2023-06-10T00:43:47;6.87;;;1.53;;
80307;SDS011;69616;43.522;1.348;2023-06-10T00:46:13;8.57;;;1.57;;
80307;SDS011;69616;43.522;1.348;2023-06-10T00:48:39;8.32;;;1.20;;
80307;SDS011;69616;43.522;1.348;2023-06-10T00:51:06;6.43;;;1.30;;
80307;SDS011;69616;43.522;1.348;2023-06-10T00:53:34;5.78;;;1.08;;
80307;SDS011;69616;43.522;1.348;2023-06-10T00:56:01;6.63;;;1.20;;
80307;SDS011;69616;43.522;1.348;2023-06-10T00:58:28;7.55;;;1.05;;
80307;SDS011;69616;43.522;1.348;2023-06-10T01:00:53;5.73;;;1.27;;
80307;SDS011;69616;43.522;1.348;2023-06-10T01:03:19;3.53;;;1.10;;
80307;SDS011;69616;43.522;1.348;2023-06-10T01:05:45;8.27;;;1.30;;
80307;SDS011;69616;43.522;1.348;2023-06-10T01:08:27;7.17;;;1.20;;
80307;SDS011;69616;43.522;1.348;2023-06-10T01:10:59;7.68;;;1.00;;
80307;SDS011;69616;43.522;1.348;2023-06-10T01:13:26;9.75;;;1.67;;
80307;SDS011;69616;43.522;1.348;2023-06-10T01:15:57;9.93;;;1.58;;
80307;SDS011;69616;43.522;1.348;2023-06-10T01:18:24;7.97;;;1.50;;
80307;SDS011;69616;43.522;1.348;2023-06-10T01:20:55;8.80;;;1.20;;
80307;SDS011;69616;43.522;1.348;2023-06-10T01:23:21;9.73;;;1.15;;
80307;SDS011;69616;43.522;1.348;2023-06-10T01:25:55;7.00;;;1.43;;
80307;SDS011;69616;43.522;1.348;2023-06-10T01:33:37;9.15;;;1.55;;
80307;SDS011;69616;43.522;1.348;2023-06-10T01:36:06;5.25;;;0.95;;
80307;SDS011;69616;43.522;1.348;2023-06-10T01:38:34;5.72;;;1.17;;
80307;SDS011;69616;43.522;1.348;2023-06-10T01:41:04;6.05;;;0.85;;
80307;SDS011;69616;43.522;1.348;2023-06-10T01:43:34;11.90;;;1.63;;
80307;SDS011;69616;43.522;1.348;2023-06-10T01:45:59;10.25;;;1.58;;
80307;SDS011;69616;43.522;1.348;2023-06-10T01:48:25;9.00;;;1.30;;
80307;SDS011;69616;43.522;1.348;2023-06-10T01:50:51;7.97;;;1.00;;
80307;SDS011;69616;43.522;1.348;2023-06-10T01:53:17;5.75;;;1.25;;
80307;SDS011;69616;43.522;1.348;2023-06-10T01:55:42;5.33;;;1.03;;
80307;SDS011;69616;43.522;1.348;2023-06-10T01:58:08;7.53;;;1.00;;
80307;SDS011;69616;43.522;1.348;2023-06-10T02:00:33;11.70;;;1.40;;
80307;SDS011;69616;43.522;1.348;2023-06-10T02:02:58;8.33;;;1.30;;
80307;SDS011;69616;43.522;1.348;2023-06-10T02:05:24;11.38;;;1.20;;
80307;SDS011;69616;43.522;1.348;2023-06-10T02:07:49;10.13;;;1.43;;
80307;SDS011;69616;43.522;1.348;2023-06-10T02:10:16;8.93;;;1.23;;
80307;SDS011;69616;43.522;1.348;2023-06-10T02:12:41;11.03;;;1.60;;
80307;SDS011;69616;43.522;1.348;2023-06-10T02:15:06;7.80;;;1.10;;
80307;SDS011;69616;43.522;1.348;2023-06-10T02:17:32;10.97;;;1.57;;
80307;SDS011;69616;43.522;1.348;2023-06-10T02:19:57;7.65;;;1.30;;
80307;SDS011;69616;43.522;1.348;2023-06-10T02:22:24;8.83;;;1.27;;
80307;SDS011;69616;43.522;1.348;2023-06-10T02:24:50;8.23;;;1.17;;
80307;SDS011;69616;43.522;1.348;2023-06-10T02:27:16;8.50;;;1.23;;
80307;SDS011;69616;43.522;1.348;2023-06-10T02:29:42;12.85;;;2.60;;
80307;SDS011;69616;43.522;1.348;2023-06-10T02:32:08;7.40;;;1.25;;
80307;SDS011;69616;43.522;1.348;2023-06-10T02:34:34;6.70;;;1.30;;
80307;SDS011;69616;43.522;1.348;2023-06-10T02:36:59;7.30;;;1.23;;
80307;SDS011;69616;43.522;1.348;2023-06-10T02:39:25;7.90;;;1.10;;
80307;SDS011;69616;43.522;1.348;2023-06-10T02:41:51;9.17;;;1.33;;
80307;SDS011;69616;43.522;1.348;2023-06-10T02:44:17;9.32;;;1.23;;
80307;SDS011;69616;43.522;1.348;2023-06-10T02:46:43;7.57;;;0.90;;
80307;SDS011;69616;43.522;1.348;2023-06-10T02:49:09;5.85;;;1.40;;
80307;SDS011;69616;43.522;1.348;2023-06-10T02:51:34;6.70;;;1.17;;
80307;SDS011;69616;43.522;1.348;2023-06-10T02:54:00;6.43;;;1.20;;
80307;SDS011;69616;43.522;1.348;2023-06-10T02:56:26;6.40;;;1.00;;
80307;SDS011;69616;43.522;1.348;2023-06-10T02:58:51;8.20;;;1.33;;
80307;SDS011;69616;43.522;1.348;2023-06-10T03:01:17;9.43;;;1.38;;
80307;SDS011;69616;43.522;1.348;2023-06-10T03:03:43;5.20;;;1.03;;
80307;SDS011;69616;43.522;1.348;2023-06-10T03:06:12;4.55;;;1.00;;
80307;SDS011;69616;43.522;1.348;2023-06-10T03:08:39;8.23;;;1.00;;
80307;SDS011;69616;43.522;1.348;2023-06-10T03:11:05;8.38;;;1.10;;
80307;SDS011;69616;43.522;1.348;2023-06-10T03:13:31;5.63;;;0.90;;
80307;SDS011;69616;43.522;1.348;2023-06-10T03:15:57;6.22;;;1.08;;
80307;SDS011;69616;43.522;1.348;2023-06-10T03:18:26;6.40;;;1.13;;
80307;SDS011;69616;43.522;1.348;2023-06-10T03:20:53;5.78;;;1.20;;
80307;SDS011;69616;43.522;1.348;2023-06-10T03:23:19;7.85;;;0.93;;
80307;SDS011;69616;43.522;1.348;2023-06-10T03:25:45;6.70;;;1.23;;
80307;SDS011;69616;43.522;1.348;2023-06-10T03:28:11;10.45;;;1.20;;
80307;SDS011;69616;43.522;1.348;2023-06-10T03:30:36;8.13;;;1.30;;
80307;SDS011;69616;43.522;1.348;2023-06-10T03:33:01;4.97;;;1.00;;
80307;SDS011;69616;43.522;1.348;2023-06-10T03:35:27;8.80;;;1.10;;
80307;SDS011;69616;43.522;1.348;2023-06-10T03:37:52;5.90;;;1.23;;
80307;SDS011;69616;43.522;1.348;2023-06-10T03:40:18;7.53;;;1.23;;
80307;SDS011;69616;43.522;1.348;2023-06-10T03:42:43;6.13;;;1.10;;
80307;SDS011;69616;43.522;1.348;2023-06-10T03:45:09;10.07;;;1.30;;
80307;SDS011;69616;43.522;1.348;2023-06-10T03:47:36;8.68;;;1.20;;
80307;SDS011;69616;43.522;1.348;2023-06-10T03:50:05;7.88;;;1.33;;
80307;SDS011;69616;43.522;1.348;2023-06-10T03:52:30;7.63;;;1.23;;
80307;SDS011;69616;43.522;1.348;2023-06-10T03:54:56;9.70;;;1.60;;
80307;SDS011;69616;43.522;1.348;2023-06-10T03:57:21;8.00;;;1.20;;
80307;SDS011;69616;43.522;1.348;2023-06-10T03:59:47;6.45;;;1.23;;
80307;SDS011;69616;43.522;1.348;2023-06-10T04:02:12;11.47;;;1.70;;
80307;SDS011;69616;43.522;1.348;2023-06-10T04:04:38;7.80;;;1.40;;
80307;SDS011;69616;43.522;1.348;2023-06-10T04:07:04;7.70;;;1.70;;
80307;SDS011;69616;43.522;1.348;2023-06-10T04:09:30;8.47;;;1.70;;
80307;SDS011;69616;43.522;1.348;2023-06-10T04:11:55;6.93;;;1.63;;
80307;SDS011;69616;43.522;1.348;2023-06-10T04:14:20;7.83;;;1.50;;
80307;SDS011;69616;43.522;1.348;2023-06-10T04:16:46;8.07;;;1.60;;
80307;SDS011;69616;43.522;1.348;2023-06-10T04:19:11;7.63;;;1.77;;
80307;SDS011;69616;43.522;1.348;2023-06-10T04:21:37;7.10;;;1.80;;
80307;SDS011;69616;43.522;1.348;2023-06-10T04:24:02;9.13;;;1.70;;
80307;SDS011;69616;43.522;1.348;2023-06-10T04:26:28;8.43;;;1.70;;
80307;SDS011;69616;43.522;1.348;2023-06-10T04:28:53;6.30;;;1.53;;
80307;SDS011;69616;43.522;1.348;2023-06-10T04:31:19;10.27;;;2.03;;
80307;SDS011;69616;43.522;1.348;2023-06-10T04:33:44;9.90;;;1.50;;
80307;SDS011;69616;43.522;1.348;2023-06-10T04:36:10;7.40;;;1.90;;
80307;SDS011;69616;43.522;1.348;2023-06-10T04:38:35;7.97;;;1.50;;
80307;SDS011;69616;43.522;1.348;2023-06-10T04:41:01;11.07;;;2.20;;
80307;SDS011;69616;43.522;1.348;2023-06-10T04:43:26;10.57;;;2.17;;
80307;SDS011;69616;43.522;1.348;2023-06-10T04:45:53;6.63;;;1.60;;
80307;SDS011;69616;43.522;1.348;2023-06-10T04:48:19;9.27;;;1.95;;
80307;SDS011;69616;43.522;1.348;2023-06-10T04:50:44;7.20;;;1.43;;
80307;SDS011;69616;43.522;1.348;2023-06-10T04:53:09;7.37;;;1.50;;
80307;SDS011;69616;43.522;1.348;2023-06-10T04:55:35;9.87;;;1.83;;
80307;SDS011;69616;43.522;1.348;2023-06-10T04:58:01;10.75;;;1.55;;
80307;SDS011;69616;43.522;1.348;2023-06-10T05:00:26;7.23;;;1.70;;
80307;SDS011;69616;43.522;1.348;2023-06-10T05:02:52;8.13;;;1.40;;
80307;SDS011;69616;43.522;1.348;2023-06-10T05:05:18;4.70;;;1.20;;
80307;SDS011;69616;43.522;1.348;2023-06-10T05:07:43;9.38;;;1.33;;
80307;SDS011;69616;43.522;1.348;2023-06-10T05:10:09;9.43;;;1.73;;
80307;SDS011;69616;43.522;1.348;2023-06-10T05:12:35;4.60;;;1.50;;
80307;SDS011;69616;43.522;1.348;2023-06-10T05:15:00;8.60;;;1.57;;
80307;SDS011;69616;43.522;1.348;2023-06-10T05:17:26;5.00;;;1.70;;
80307;SDS011;69616;43.522;1.348;2023-06-10T05:19:52;5.55;;;1.63;;
80307;SDS011;69616;43.522;1.348;2023-06-10T05:22:18;6.22;;;1.70;;
80307;SDS011;69616;43.522;1.348;2023-06-10T05:24:43;8.23;;;2.03;;
80307;SDS011;69616;43.522;1.348;2023-06-10T05:27:09;7.07;;;1.88;;
80307;SDS011;69616;43.522;1.348;2023-06-10T05:29:35;7.53;;;1.90;;
80307;SDS011;69616;43.522;1.348;2023-06-10T05:32:01;11.53;;;2.53;;
80307;SDS011;69616;43.522;1.348;2023-06-10T05:34:31;8.60;;;2.47;;
80307;SDS011;69616;43.522;1.348;2023-06-10T05:36:57;7.63;;;2.03;;
80307;SDS011;69616;43.522;1.348;2023-06-10T05:39:22;6.07;;;1.90;;
80307;SDS011;69616;43.522;1.348;2023-06-10T05:41:48;8.60;;;1.77;;
80307;SDS011;69616;43.522;1.348;2023-06-10T05:44:13;5.17;;;1.63;;
80307;SDS011;69616;43.522;1.348;2023-06-10T05:46:38;8.60;;;1.90;;
80307;SDS011;69616;43.522;1.348;2023-06-10T05:49:04;5.83;;;1.60;;
80307;SDS011;69616;43.522;1.348;2023-06-10T05:51:29;6.40;;;1.87;;
80307;SDS011;69616;43.522;1.348;2023-06-10T05:53:55;8.20;;;1.90;;
80307;SDS011;69616;43.522;1.348;2023-06-10T05:56:20;6.80;;;1.90;;
80307;SDS011;69616;43.522;1.348;2023-06-10T05:58:49;10.50;;;2.00;;
80307;SDS011;69616;43.522;1.348;2023-06-10T06:01:14;8.57;;;2.05;;
80307;SDS011;69616;43.522;1.348;2023-06-10T06:03:40;11.60;;;2.33;;
80307;SDS011;69616;43.522;1.348;2023-06-10T06:06:06;10.40;;;2.53;;
80307;SDS011;69616;43.522;1.348;2023-06-10T06:08:31;12.23;;;2.23;;
80307;SDS011;69616;43.522;1.348;2023-06-10T06:10:57;11.70;;;2.30;;
80307;SDS011;69616;43.522;1.348;2023-06-10T06:13:22;7.80;;;2.30;;
80307;SDS011;69616;43.522;1.348;2023-06-10T06:15:48;14.00;;;2.60;;
80307;SDS011;69616;43.522;1.348;2023-06-10T06:18:13;7.35;;;2.28;;
80307;SDS011;69616;43.522;1.348;2023-06-10T06:20:39;13.47;;;3.00;;
80307;SDS011;69616;43.522;1.348;2023-06-10T06:23:04;11.50;;;3.13;;
80307;SDS011;69616;43.522;1.348;2023-06-10T06:25:30;10.85;;;3.05;;
80307;SDS011;69616;43.522;1.348;2023-06-10T06:27:55;13.00;;;3.30;;
80307;SDS011;69616;43.522;1.348;2023-06-10T06:30:21;12.00;;;2.70;;
80307;SDS011;69616;43.522;1.348;2023-06-10T06:32:46;13.10;;;3.33;;
80307;SDS011;69616;43.522;1.348;2023-06-10T06:35:11;11.07;;;2.93;;
80307;SDS011;69616;43.522;1.348;2023-06-10T06:37:37;12.02;;;2.47;;
80307;SDS011;69616;43.522;1.348;2023-06-10T06:40:02;6.83;;;2.47;;
80307;SDS011;69616;43.522;1.348;2023-06-10T06:42:28;11.68;;;2.83;;
80307;SDS011;69616;43.522;1.348;2023-06-10T06:44:54;11.87;;;2.40;;
80307;SDS011;69616;43.522;1.348;2023-06-10T06:47:19;8.13;;;2.20;;
80307;SDS011;69616;43.522;1.348;2023-06-10T06:49:46;7.68;;;1.90;;
80307;SDS011;69616;43.522;1.348;2023-06-10T06:52:12;9.27;;;2.42;;
80307;SDS011;69616;43.522;1.348;2023-06-10T06:54:38;10.67;;;2.20;;
80307;SDS011;69616;43.522;1.348;2023-06-10T06:57:03;10.00;;;2.20;;
80307;SDS011;69616;43.522;1.348;2023-06-10T06:59:29;8.30;;;1.97;;
80307;SDS011;69616;43.522;1.348;2023-06-10T07:01:54;7.10;;;1.70;;
80307;SDS011;69616;43.522;1.348;2023-06-10T07:04:19;7.20;;;1.80;;
80307;SDS011;69616;43.522;1.348;2023-06-10T07:06:47;10.90;;;1.87;;
80307;SDS011;69616;43.522;1.348;2023-06-10T07:09:12;14.30;;;2.10;;
80307;SDS011;69616;43.522;1.348;2023-06-10T07:11:38;9.40;;;1.65;;
80307;SDS011;69616;43.522;1.348;2023-06-10T07:14:03;6.37;;;1.80;;
80307;SDS011;69616;43.522;1.348;2023-06-10T07:16:29;9.90;;;2.00;;
80307;SDS011;69616;43.522;1.348;2023-06-10T07:18:54;7.57;;;1.47;;
80307;SDS011;69616;43.522;1.348;2023-06-10T07:21:20;7.30;;;1.70;;
80307;SDS011;69616;43.522;1.348;2023-06-10T07:23:45;8.20;;;1.63;;
80307;SDS011;69616;43.522;1.348;2023-06-10T07:26:11;12.00;;;1.90;;
80307;SDS011;69616;43.522;1.348;2023-06-10T07:28:38;7.72;;;1.63;;
80307;SDS011;69616;43.522;1.348;2023-06-10T07:31:04;4.38;;;1.50;;
80307;SDS011;69616;43.522;1.348;2023-06-10T07:33:30;6.10;;;1.47;;
80307;SDS011;69616;43.522;1.348;2023-06-10T07:35:55;7.50;;;1.80;;
80307;SDS011;69616;43.522;1.348;2023-06-10T07:38:28;9.60;;;1.80;;
80307;SDS011;69616;43.522;1.348;2023-06-10T07:40:54;6.90;;;1.67;;
80307;SDS011;69616;43.522;1.348;2023-06-10T07:43:19;6.87;;;1.83;;
80307;SDS011;69616;43.522;1.348;2023-06-10T07:45:45;8.50;;;1.63;;
80307;SDS011;69616;43.522;1.348;2023-06-10T07:48:10;5.87;;;2.03;;
80307;SDS011;69616;43.522;1.348;2023-06-10T07:50:36;8.52;;;1.50;;
80307;SDS011;69616;43.522;1.348;2023-06-10T07:53:01;8.87;;;2.20;;
80307;SDS011;69616;43.522;1.348;2023-06-10T07:55:27;12.80;;;2.30;;
80307;SDS011;69616;43.522;1.348;2023-06-10T07:57:53;13.23;;;2.80;;
80307;SDS011;69616;43.522;1.348;2023-06-10T08:00:19;9.43;;;2.10;;
80307;SDS011;69616;43.522;1.348;2023-06-10T08:02:45;6.88;;;1.80;;
80307;SDS011;69616;43.522;1.348;2023-06-10T08:05:11;9.33;;;2.37;;
80307;SDS011;69616;43.522;1.348;2023-06-10T08:07:36;8.13;;;2.00;;
80307;SDS011;69616;43.522;1.348;2023-06-10T08:10:02;6.03;;;1.83;;
80307;SDS011;69616;43.522;1.348;2023-06-10T08:12:29;4.50;;;1.60;;
80307;SDS011;69616;43.522;1.348;2023-06-10T08:14:54;7.25;;;1.70;;
80307;SDS011;69616;43.522;1.348;2023-06-10T08:17:20;4.80;;;1.60;;
80307;SDS011;69616;43.522;1.348;2023-06-10T08:19:46;5.28;;;1.67;;
80307;SDS011;69616;43.522;1.348;2023-06-10T08:22:11;4.83;;;1.50;;
80307;SDS011;69616;43.522;1.348;2023-06-10T08:24:37;5.07;;;1.80;;
80307;SDS011;69616;43.522;1.348;2023-06-10T08:27:02;4.80;;;1.50;;
80307;SDS011;69616;43.522;1.348;2023-06-10T08:29:28;5.37;;;1.70;;
80307;SDS011;69616;43.522;1.348;2023-06-10T08:31:55;7.60;;;1.85;;
80307;SDS011;69616;43.522;1.348;2023-06-10T08:34:20;7.53;;;1.58;;
80307;SDS011;69616;43.522;1.348;2023-06-10T08:36:45;4.70;;;1.00;;
80307;SDS011;69616;43.522;1.348;2023-06-10T08:39:11;4.20;;;1.10;;
80307;SDS011;69616;43.522;1.348;2023-06-10T08:41:37;4.05;;;1.10;;
80307;SDS011;69616;43.522;1.348;2023-06-10T08:44:16;4.43;;;1.20;;
80307;SDS011;69616;43.522;1.348;2023-06-10T08:46:47;3.33;;;1.00;;
80307;SDS011;69616;43.522;1.348;2023-06-10T08:49:17;5.38;;;1.02;;
80307;SDS011;69616;43.522;1.348;2023-06-10T08:51:46;5.88;;;1.27;;
80307;SDS011;69616;43.522;1.348;2023-06-10T08:54:17;4.38;;;1.30;;
80307;SDS011;69616;43.522;1.348;2023-06-10T08:56:47;5.87;;;1.30;;
80307;SDS011;69616;43.522;1.348;2023-06-10T08:59:14;6.50;;;1.42;;
80307;SDS011;69616;43.522;1.348;2023-06-10T09:01:44;4.55;;;1.30;;
80307;SDS011;69616;43.522;1.348;2023-06-10T09:04:10;5.47;;;1.10;;
80307;SDS011;69616;43.522;1.348;2023-06-10T09:06:36;6.22;;;1.33;;
80307;SDS011;69616;43.522;1.348;2023-06-10T09:09:03;5.47;;;1.27;;
80307;SDS011;69616;43.522;1.348;2023-06-10T09:11:30;6.05;;;1.30;;
80307;SDS011;69616;43.522;1.348;2023-06-10T09:13:56;5.15;;;1.30;;
80307;SDS011;69616;43.522;1.348;2023-06-10T09:16:22;6.60;;;1.30;;
80307;SDS011;69616;43.522;1.348;2023-06-10T09:18:48;6.07;;;1.10;;
80307;SDS011;69616;43.522;1.348;2023-06-10T09:21:19;4.00;;;1.15;;
80307;SDS011;69616;43.522;1.348;2023-06-10T09:23:46;4.80;;;1.00;;
80307;SDS011;69616;43.522;1.348;2023-06-10T09:26:11;5.67;;;1.20;;
80307;SDS011;69616;43.522;1.348;2023-06-10T09:28:37;4.27;;;1.13;;
80307;SDS011;69616;43.522;1.348;2023-06-10T09:31:04;3.50;;;0.88;;
80307;SDS011;69616;43.522;1.348;2023-06-10T09:33:31;4.18;;;0.95;;
80307;SDS011;69616;43.522;1.348;2023-06-10T09:35:57;5.30;;;1.33;;
80307;SDS011;69616;43.522;1.348;2023-06-10T09:38:29;5.22;;;1.20;;
80307;SDS011;69616;43.522;1.348;2023-06-10T09:40:55;6.57;;;1.30;;
80307;SDS011;69616;43.522;1.348;2023-06-10T09:43:20;4.85;;;1.20;;
80307;SDS011;69616;43.522;1.348;2023-06-10T09:45:50;5.07;;;1.20;;
80307;SDS011;69616;43.522;1.348;2023-06-10T09:48:18;5.38;;;1.30;;
80307;SDS011;69616;43.522;1.348;2023-06-10T09:50:44;4.17;;;0.97;;
80307;SDS011;69616;43.522;1.348;2023-06-10T09:53:10;6.07;;;1.42;;
80307;SDS011;69616;43.522;1.348;2023-06-10T09:55:39;4.28;;;1.27;;
80307;SDS011;69616;43.522;1.348;2023-06-10T09:58:05;3.70;;;1.20;;
80307;SDS011;69616;43.522;1.348;2023-06-10T10:00:34;4.33;;;1.10;;
80307;SDS011;69616;43.522;1.348;2023-06-10T10:03:00;4.57;;;1.30;;
80307;SDS011;69616;43.522;1.348;2023-06-10T10:05:26;3.20;;;1.10;;
80307;SDS011;69616;43.522;1.348;2023-06-10T10:07:52;4.57;;;1.20;;
80307;SDS011;69616;43.522;1.348;2023-06-10T10:10:19;3.67;;;1.10;;
80307;SDS011;69616;43.522;1.348;2023-06-10T10:12:47;3.72;;;1.23;;
80307;SDS011;69616;43.522;1.348;2023-06-10T10:15:13;4.90;;;1.30;;
80307;SDS011;69616;43.522;1.348;2023-06-10T10:18:24;4.90;;;1.30;;
80307;SDS011;69616;43.522;1.348;2023-06-10T10:20:35;4.50;;;1.20;;
80307;SDS011;69616;43.522;1.348;2023-06-10T10:23:08;4.65;;;1.20;;
80307;SDS011;69616;43.522;1.348;2023-06-10T10:25:39;4.38;;;1.23;;
80307;SDS011;69616;43.522;1.348;2023-06-10T10:28:13;4.18;;;1.10;;
80307;SDS011;69616;43.522;1.348;2023-06-10T10:30:42;3.63;;;0.90;;
80307;SDS011;69616;43.522;1.348;2023-06-10T10:33:19;5.25;;;1.10;;
80307;SDS011;69616;43.522;1.348;2023-06-10T10:35:48;3.63;;;1.20;;
80307;SDS011;69616;43.522;1.348;2023-06-10T10:38:14;5.28;;;1.63;;
80307;SDS011;69616;43.522;1.348;2023-06-10T10:40:40;4.53;;;1.27;;
80307;SDS011;69616;43.522;1.348;2023-06-10T10:43:06;4.28;;;1.40;;
80307;SDS011;69616;43.522;1.348;2023-06-10T10:45:33;5.25;;;1.20;;
80307;SDS011;69616;43.522;1.348;2023-06-10T10:47:59;5.93;;;1.23;;
80307;SDS011;69616;43.522;1.348;2023-06-10T10:50:31;4.13;;;0.98;;
80307;SDS011;69616;43.522;1.348;2023-06-10T10:53:00;4.53;;;1.10;;
80307;SDS011;69616;43.522;1.348;2023-06-10T10:55:27;5.00;;;1.40;;
80307;SDS011;69616;43.522;1.348;2023-06-10T10:57:56;4.70;;;1.20;;
80307;SDS011;69616;43.522;1.348;2023-06-10T11:00:30;8.43;;;1.30;;
80307;SDS011;69616;43.522;1.348;2023-06-10T11:03:00;4.70;;;1.30;;
80307;SDS011;69616;43.522;1.348;2023-06-10T11:05:38;4.55;;;1.10;;
80307;SDS011;69616;43.522;1.348;2023-06-10T11:08:07;4.30;;;1.20;;
80307;SDS011;69616;43.522;1.348;2023-06-10T11:10:34;3.38;;;1.05;;
80307;SDS011;69616;43.522;1.348;2023-06-10T11:13:08;4.97;;;1.30;;
80307;SDS011;69616;43.522;1.348;2023-06-10T11:15:37;10.65;;;1.65;;
80307;SDS011;69616;43.522;1.348;2023-06-10T11:18:24;4.72;;;1.23;;
80307;SDS011;69616;43.522;1.348;2023-06-10T11:20:53;4.87;;;1.10;;
80307;SDS011;69616;43.522;1.348;2023-06-10T11:26:34;4.95;;;1.10;;
80307;SDS011;69616;43.522;1.348;2023-06-10T11:31:20;4.75;;;1.60;;
80307;SDS011;69616;43.522;1.348;2023-06-10T11:33:46;4.90;;;1.30;;
80307;SDS011;69616;43.522;1.348;2023-06-10T11:36:13;5.78;;;1.20;;
80307;SDS011;69616;43.522;1.348;2023-06-10T11:38:40;6.40;;;1.27;;
80307;SDS011;69616;43.522;1.348;2023-06-10T11:41:06;6.70;;;1.90;;
80307;SDS011;69616;43.522;1.348;2023-06-10T11:43:32;4.40;;;1.00;;
80307;SDS011;69616;43.522;1.348;2023-06-10T11:45:58;4.30;;;1.20;;
80307;SDS011;69616;43.522;1.348;2023-06-10T11:48:24;3.65;;;1.13;;
80307;SDS011;69616;43.522;1.348;2023-06-10T11:50:53;4.22;;;1.25;;
80307;SDS011;69616;43.522;1.348;2023-06-10T11:53:18;4.13;;;1.03;;
80307;SDS011;69616;43.522;1.348;2023-06-10T11:55:48;3.38;;;0.98;;
80307;SDS011;69616;43.522;1.348;2023-06-10T11:58:16;3.30;;;1.03;;
80307;SDS011;69616;43.522;1.348;2023-06-10T12:00:51;3.40;;;1.38;;
80307;SDS011;69616;43.522;1.348;2023-06-10T12:03:18;4.18;;;0.90;;
80307;SDS011;69616;43.522;1.348;2023-06-10T12:06:02;4.22;;;1.40;;
80307;SDS011;69616;43.522;1.348;2023-06-10T12:08:29;4.40;;;1.30;;
80307;SDS011;69616;43.522;1.348;2023-06-10T12:10:54;4.47;;;1.10;;
80307;SDS011;69616;43.522;1.348;2023-06-10T12:13:21;2.92;;;1.00;;
80307;SDS011;69616;43.522;1.348;2023-06-10T12:15:48;4.10;;;1.20;;
80307;SDS011;69616;43.522;1.348;2023-06-10T12:20:44;3.10;;;1.00;;
80307;SDS011;69616;43.522;1.348;2023-06-10T12:23:10;4.27;;;1.07;;
80307;SDS011;69616;43.522;1.348;2023-06-10T12:25:36;3.40;;;1.10;;
80307;SDS011;69616;43.522;1.348;2023-06-10T12:28:03;4.15;;;1.10;;
80307;SDS011;69616;43.522;1.348;2023-06-10T12:30:29;3.00;;;1.05;;
80307;SDS011;69616;43.522;1.348;2023-06-10T12:32:56;3.10;;;0.90;;
80307;SDS011;69616;43.522;1.348;2023-06-10T12:35:23;3.03;;;1.00;;
80307;SDS011;69616;43.522;1.348;2023-06-10T12:38:02;3.75;;;1.10;;
80307;SDS011;69616;43.522;1.348;2023-06-10T12:40:32;3.22;;;0.93;;
80307;SDS011;69616;43.522;1.348;2023-06-10T12:43:01;2.90;;;1.00;;
80307;SDS011;69616;43.522;1.348;2023-06-10T12:45:27;3.70;;;0.90;;
80307;SDS011;69616;43.522;1.348;2023-06-10T12:48:06;3.80;;;0.80;;
80307;SDS011;69616;43.522;1.348;2023-06-10T12:50:40;4.32;;;1.00;;
80307;SDS011;69616;43.522;1.348;2023-06-10T12:53:07;4.22;;;1.10;;
80307;SDS011;69616;43.522;1.348;2023-06-10T12:55:33;2.90;;;1.00;;
80307;SDS011;69616;43.522;1.348;2023-06-10T12:57:59;3.58;;;1.08;;
80307;SDS011;69616;43.522;1.348;2023-06-10T13:00:26;3.70;;;1.10;;
80307;SDS011;69616;43.522;1.348;2023-06-10T13:02:54;3.42;;;1.10;;
80307;SDS011;69616;43.522;1.348;2023-06-10T13:05:20;4.03;;;1.40;;
80307;SDS011;69616;43.522;1.348;2023-06-10T13:07:46;3.77;;;1.30;;
80307;SDS011;69616;43.522;1.348;2023-06-10T13:10:12;4.65;;;1.60;;
80307;SDS011;69616;43.522;1.348;2023-06-10T13:12:38;4.95;;;1.58;;
80307;SDS011;69616;43.522;1.348;2023-06-10T13:15:04;4.57;;;1.30;;
80307;SDS011;69616;43.522;1.348;2023-06-10T13:17:30;4.10;;;1.40;;
80307;SDS011;69616;43.522;1.348;2023-06-10T13:19:55;3.20;;;1.20;;
80307;SDS011;69616;43.522;1.348;2023-06-10T13:22:21;3.93;;;1.20;;
80307;SDS011;69616;43.522;1.348;2023-06-10T13:24:46;3.80;;;1.20;;
80307;SDS011;69616;43.522;1.348;2023-06-10T13:27:12;3.70;;;1.50;;
80307;SDS011;69616;43.522;1.348;2023-06-10T13:29:39;3.55;;;1.35;;
80307;SDS011;69616;43.522;1.348;2023-06-10T13:32:05;3.38;;;1.15;;
80307;SDS011;69616;43.522;1.348;2023-06-10T13:34:31;3.95;;;1.27;;
80307;SDS011;69616;43.522;1.348;2023-06-10T13:36:56;3.57;;;1.23;;
80307;SDS011;69616;43.522;1.348;2023-06-10T13:39:22;3.93;;;1.47;;
80307;SDS011;69616;43.522;1.348;2023-06-10T13:41:47;6.17;;;1.33;;
80307;SDS011;69616;43.522;1.348;2023-06-10T13:44:12;4.80;;;1.47;;
80307;SDS011;69616;43.522;1.348;2023-06-10T13:46:38;3.45;;;1.10;;
80307;SDS011;69616;43.522;1.348;2023-06-10T13:49:03;3.67;;;1.30;;
80307;SDS011;69616;43.522;1.348;2023-06-10T13:51:28;3.33;;;1.10;;
80307;SDS011;69616;43.522;1.348;2023-06-10T13:53:54;5.47;;;1.30;;
80307;SDS011;69616;43.522;1.348;2023-06-10T13:56:19;4.10;;;1.35;;
80307;SDS011;69616;43.522;1.348;2023-06-10T13:58:45;4.90;;;1.27;;
80307;SDS011;69616;43.522;1.348;2023-06-10T14:01:10;4.57;;;1.10;;
80307;SDS011;69616;43.522;1.348;2023-06-10T14:03:36;4.40;;;1.17;;
80307;SDS011;69616;43.522;1.348;2023-06-10T14:06:01;4.30;;;1.30;;
80307;SDS011;69616;43.522;1.348;2023-06-10T14:08:27;3.20;;;1.10;;
80307;SDS011;69616;43.522;1.348;2023-06-10T14:10:52;5.20;;;1.30;;
80307;SDS011;69616;43.522;1.348;2023-06-10T14:13:18;4.17;;;1.20;;
80307;SDS011;69616;43.522;1.348;2023-06-10T14:15:44;3.73;;;1.10;;
80307;SDS011;69616;43.522;1.348;2023-06-10T14:18:10;3.30;;;1.20;;
80307;SDS011;69616;43.522;1.348;2023-06-10T14:20:35;4.13;;;1.23;;
80307;SDS011;69616;43.522;1.348;2023-06-10T14:23:01;3.60;;;1.02;;
80307;SDS011;69616;43.522;1.348;2023-06-10T14:25:26;4.17;;;1.10;;
80307;SDS011;69616;43.522;1.348;2023-06-10T14:27:52;5.00;;;1.10;;
80307;SDS011;69616;43.522;1.348;2023-06-10T14:30:17;3.80;;;1.10;;
80307;SDS011;69616;43.522;1.348;2023-06-10T14:32:43;4.15;;;1.15;;
80307;SDS011;69616;43.522;1.348;2023-06-10T14:35:08;3.90;;;1.40;;
80307;SDS011;69616;43.522;1.348;2023-06-10T14:37:34;5.47;;;1.20;;
80307;SDS011;69616;43.522;1.348;2023-06-10T14:40:00;5.10;;;1.10;;
80307;SDS011;69616;43.522;1.348;2023-06-10T14:42:25;3.33;;;0.90;;
80307;SDS011;69616;43.522;1.348;2023-06-10T14:44:51;3.73;;;1.20;;
80307;SDS011;69616;43.522;1.348;2023-06-10T14:47:16;4.00;;;1.25;;
80307;SDS011;69616;43.522;1.348;2023-06-10T14:49:42;3.57;;;1.00;;
80307;SDS011;69616;43.522;1.348;2023-06-10T14:52:08;4.32;;;1.58;;
80307;SDS011;69616;43.522;1.348;2023-06-10T14:54:34;4.22;;;1.33;;
80307;SDS011;69616;43.522;1.348;2023-06-10T14:57:00;3.27;;;1.20;;